TimeMDT,TemperatureF,Dew PointF,Humidity,Sea Level PressureIn,VisibilityMPH,Wind Direction,Wind SpeedMPH,Gust SpeedMPH,PrecipitationIn,Events,Conditions,WindDirDegrees,DateUTC
12:56 AM,63.0,51.1,65,29.83,10.0,SSE,12.7,-,N/A,,Partly Cloudy,150,2013-09-14 06:56:00
1:56 AM,61.0,53.1,75,29.85,10.0,ESE,8.1,-,0.00,Rain,Light Rain,120,2013-09-14 07:56:00
2:56 AM,60.1,55.0,83,29.86,10.0,SSE,9.2,-,0.01,Rain,Light Rain,160,2013-09-14 08:56:00
3:56 AM,59.0,54.0,83,29.88,10.0,SE,3.5,-,0.02,Rain,Light Rain,140,2013-09-14 09:56:00
4:56 AM,57.9,55.9,93,29.89,10.0,East,4.6,-,0.01,Rain,Light Rain,80,2013-09-14 10:56:00
5:56 AM,57.9,55.9,93,29.91,10.0,ESE,3.5,-,0.06,Rain,Light Rain,110,2013-09-14 11:56:00
6:56 AM,57.0,55.9,96,29.92,10.0,SSE,4.6,-,0.00,,Overcast,150,2013-09-14 12:56:00
7:56 AM,57.9,55.9,93,29.94,10.0,SE,4.6,-,N/A,,Scattered Clouds,130,2013-09-14 13:56:00
8:56 AM,60.1,55.9,86,29.96,10.0,Calm,Calm,-,N/A,,Clear,0,2013-09-14 14:56:00
9:56 AM,63.0,55.0,75,29.96,10.0,Calm,Calm,-,N/A,,Clear,0,2013-09-14 15:56:00
10:56 AM,64.0,55.9,75,29.97,10.0,Calm,Calm,-,N/A,,Clear,0,2013-09-14 16:56:00
11:56 AM,64.9,53.1,65,29.98,10.0,Calm,Calm,-,N/A,,Clear,0,2013-09-14 17:56:00
12:56 PM,68.0,53.1,59,29.97,10.0,Calm,Calm,-,N/A,,Scattered Clouds,0,2013-09-14 18:56:00
1:56 PM,70.0,53.1,55,29.96,10.0,Calm,Calm,-,N/A,,Scattered Clouds,0,2013-09-14 19:56:00
2:56 PM,72.0,52.0,49,29.95,10.0,Variable,4.6,-,N/A,,Scattered Clouds,0,2013-09-14 20:56:00
3:56 PM,72.0,52.0,49,29.95,10.0,North,-9999.0,-,N/A,,Mostly Cloudy,0,2013-09-14 21:56:00
4:56 PM,72.0,52.0,49,29.95,10.0,SE,4.6,-,N/A,,Scattered Clouds,130,2013-09-14 22:56:00
5:56 PM,72.0,52.0,49,29.96,10.0,SE,4.6,-,N/A,,Clear,130,2013-09-14 23:56:00
6:56 PM,70.0,50.0,49,29.97,10.0,SE,15.0,-,N/A,,Mostly Cloudy,130,2013-09-15 00:56:00
7:56 PM,64.0,51.1,63,30.01,10.0,ESE,5.8,-,N/A,,Clear,120,2013-09-15 01:56:00
8:56 PM,64.0,51.1,63,30.03,10.0,SSE,12.7,-,N/A,,Overcast,150,2013-09-15 02:56:00
9:56 PM,64.0,50.0,60,30.03,10.0,ESE,9.2,-,N/A,,Clear,120,2013-09-15 03:56:00
10:56 PM,62.1,48.9,62,30.05,10.0,East,5.8,-,N/A,,Clear,100,2013-09-15 04:56:00
11:56 PM,62.1,46.9,58,30.04,10.0,ENE,8.1,-,N/A,,Clear,70,2013-09-15 05:56:00